sensor_id;sensor_type;location;lat;lon;timestamp;P1;P2;P0
49064;PMS5003;34876;51.464;-0.150;2023-05-10T00:03:21;3;2;
49064;PMS5003;34876;51.464;-0.150;2023-05-10T00:05:51;1;1;
49064;PMS5003;34876;51.464;-0.150;2023-05-10T00:08:20;3;3;
49064;PMS5003;34876;51.464;-0.150;2023-05-10T00:10:49;2;1;
49064;PMS5003;34876;51.464;-0.150;2023-05-10T00:13:18;2;2;
49064;PMS5003;34876;51.464;-0.150;2023-05-10T00:15:47;2;2;
49064;PMS5003;34876;51.464;-0.150;2023-05-10T00:18:16;3;2;
49064;PMS5003;34876;51.464;-0.150;2023-05-10T00:20:45;3;3;
49064;PMS5003;34876;51.464;-0.150;2023-05-10T00:23:14;5;2;
49064;PMS5003;34876;51.464;-0.150;2023-05-10T00:25:43;2;2;
49064;PMS5003;34876;51.464;-0.150;2023-05-10T00:28:12;2;1;
49064;PMS5003;34876;51.464;-0.150;2023-05-10T00:30:41;2;2;
49064;PMS5003;34876;51.464;-0.150;2023-05-10T00:33:12;4;2;
49064;PMS5003;34876;51.464;-0.150;2023-05-10T00:35:40;2;2;
49064;PMS5003;34876;51.464;-0.150;2023-05-10T00:38:09;2;2;
49064;PMS5003;34876;51.464;-0.150;2023-05-10T00:40:39;2;2;
49064;PMS5003;34876;51.464;-0.150;2023-05-10T00:43:09;3;3;
49064;PMS5003;34876;51.464;-0.150;2023-05-10T00:45:38;2;2;
49064;PMS5003;34876;51.464;-0.150;2023-05-10T00:48:08;2;2;
49064;PMS5003;34876;51.464;-0.150;2023-05-10T00:50:38;1;1;
49064;PMS5003;34876;51.464;-0.150;2023-05-10T00:53:07;3;2;
49064;PMS5003;34876;51.464;-0.150;2023-05-10T00:55:37;4;3;
49064;PMS5003;34876;51.464;-0.150;2023-05-10T00:58:06;1;1;
49064;PMS5003;34876;51.464;-0.150;2023-05-10T01:00:35;1;1;
49064;PMS5003;34876;51.464;-0.150;2023-05-10T01:03:05;2;2;
49064;PMS5003;34876;51.464;-0.150;2023-05-10T01:05:34;3;3;
49064;PMS5003;34876;51.464;-0.150;2023-05-10T01:08:03;2;2;
49064;PMS5003;34876;51.464;-0.150;2023-05-10T01:10:33;2;2;
49064;PMS5003;34876;51.464;-0.150;2023-05-10T01:13:02;1;1;
49064;PMS5003;34876;51.464;-0.150;2023-05-10T01:15:32;1;1;
49064;PMS5003;34876;51.464;-0.150;2023-05-10T01:18:02;4;4;
49064;PMS5003;34876;51.464;-0.150;2023-05-10T01:20:39;2;2;
49064;PMS5003;34876;51.464;-0.150;2023-05-10T01:23:20;3;3;
49064;PMS5003;34876;51.464;-0.150;2023-05-10T01:26:11;2;2;
49064;PMS5003;34876;51.464;-0.150;2023-05-10T01:28:58;2;2;
49064;PMS5003;34876;51.464;-0.150;2023-05-10T01:31:52;3;3;
49064;PMS5003;34876;51.464;-0.150;2023-05-10T01:34:34;3;2;
49064;PMS5003;34876;51.464;-0.150;2023-05-10T01:37:11;2;2;
49064;PMS5003;34876;51.464;-0.150;2023-05-10T01:39:45;2;2;
49064;PMS5003;34876;51.464;-0.150;2023-05-10T01:42:20;2;2;
49064;PMS5003;34876;51.464;-0.150;2023-05-10T01:44:53;2;2;
49064;PMS5003;34876;51.464;-0.150;2023-05-10T01:47:31;3;3;
49064;PMS5003;34876;51.464;-0.150;2023-05-10T01:50:04;2;2;
49064;PMS5003;34876;51.464;-0.150;2023-05-10T01:52:41;2;2;
49064;PMS5003;34876;51.464;-0.150;2023-05-10T01:55:13;2;2;
49064;PMS5003;34876;51.464;-0.150;2023-05-10T01:57:44;3;3;
49064;PMS5003;34876;51.464;-0.150;2023-05-10T02:00:17;2;2;
49064;PMS5003;34876;51.464;-0.150;2023-05-10T02:02:48;2;2;
49064;PMS5003;34876;51.464;-0.150;2023-05-10T02:05:18;3;3;
49064;PMS5003;34876;51.464;-0.150;2023-05-10T02:07:50;2;2;
49064;PMS5003;34876;51.464;-0.150;2023-05-10T02:10:20;3;3;
49064;PMS5003;34876;51.464;-0.150;2023-05-10T02:12:49;3;3;
49064;PMS5003;34876;51.464;-0.150;2023-05-10T02:15:20;2;2;
49064;PMS5003;34876;51.464;-0.150;2023-05-10T02:17:52;1;1;
49064;PMS5003;34876;51.464;-0.150;2023-05-10T02:20:24;2;2;
49064;PMS5003;34876;51.464;-0.150;2023-05-10T02:22:54;5;3;
49064;PMS5003;34876;51.464;-0.150;2023-05-10T02:25:25;3;3;
49064;PMS5003;34876;51.464;-0.150;2023-05-10T02:27:56;3;3;
49064;PMS5003;34876;51.464;-0.150;2023-05-10T02:30:28;2;2;
49064;PMS5003;34876;51.464;-0.150;2023-05-10T02:32:59;1;1;
49064;PMS5003;34876;51.464;-0.150;2023-05-10T02:35:30;2;2;
49064;PMS5003;34876;51.464;-0.150;2023-05-10T02:38:00;4;3;
49064;PMS5003;34876;51.464;-0.150;2023-05-10T02:40:30;3;3;
49064;PMS5003;34876;51.464;-0.150;2023-05-10T02:43:01;4;3;
49064;PMS5003;34876;51.464;-0.150;2023-05-10T02:45:32;4;3;
49064;PMS5003;34876;51.464;-0.150;2023-05-10T02:48:04;2;2;
49064;PMS5003;34876;51.464;-0.150;2023-05-10T02:50:33;3;3;
49064;PMS5003;34876;51.464;-0.150;2023-05-10T02:53:09;2;2;
49064;PMS5003;34876;51.464;-0.150;2023-05-10T02:55:42;2;2;
49064;PMS5003;34876;51.464;-0.150;2023-05-10T02:58:17;4;4;
49064;PMS5003;34876;51.464;-0.150;2023-05-10T03:00:46;3;3;
49064;PMS5003;34876;51.464;-0.150;2023-05-10T03:03:15;1;1;
49064;PMS5003;34876;51.464;-0.150;2023-05-10T03:05:44;2;2;
49064;PMS5003;34876;51.464;-0.150;2023-05-10T03:08:12;3;3;
49064;PMS5003;34876;51.464;-0.150;2023-05-10T03:10:45;3;3;
49064;PMS5003;34876;51.464;-0.150;2023-05-10T03:13:25;2;2;
49064;PMS5003;34876;51.464;-0.150;2023-05-10T03:16:03;2;2;
49064;PMS5003;34876;51.464;-0.150;2023-05-10T03:18:38;3;3;
49064;PMS5003;34876;51.464;-0.150;2023-05-10T03:21:11;4;3;
49064;PMS5003;34876;51.464;-0.150;2023-05-10T03:23:43;3;3;
49064;PMS5003;34876;51.464;-0.150;2023-05-10T03:26:15;3;3;
49064;PMS5003;34876;51.464;-0.150;2023-05-10T03:28:48;4;4;
49064;PMS5003;34876;51.464;-0.150;2023-05-10T03:31:19;5;5;
49064;PMS5003;34876;51.464;-0.150;2023-05-10T03:33:49;4;3;
49064;PMS5003;34876;51.464;-0.150;2023-05-10T03:36:18;3;3;
49064;PMS5003;34876;51.464;-0.150;2023-05-10T03:38:48;2;2;
49064;PMS5003;34876;51.464;-0.150;2023-05-10T03:41:17;3;3;
49064;PMS5003;34876;51.464;-0.150;2023-05-10T03:43:46;4;3;
49064;PMS5003;34876;51.464;-0.150;2023-05-10T03:46:15;3;2;
49064;PMS5003;34876;51.464;-0.150;2023-05-10T03:48:44;4;3;
49064;PMS5003;34876;51.464;-0.150;2023-05-10T03:51:18;5;4;
49064;PMS5003;34876;51.464;-0.150;2023-05-10T03:53:48;4;4;
49064;PMS5003;34876;51.464;-0.150;2023-05-10T03:56:17;4;3;
49064;PMS5003;34876;51.464;-0.150;2023-05-10T03:58:47;4;3;
49064;PMS5003;34876;51.464;-0.150;2023-05-10T04:01:17;3;3;
49064;PMS5003;34876;51.464;-0.150;2023-05-10T04:03:45;2;2;
49064;PMS5003;34876;51.464;-0.150;2023-05-10T04:06:14;3;3;
49064;PMS5003;34876;51.464;-0.150;2023-05-10T04:08:43;4;4;
49064;PMS5003;34876;51.464;-0.150;2023-05-10T04:11:12;3;3;
49064;PMS5003;34876;51.464;-0.150;2023-05-10T04:13:40;2;2;
49064;PMS5003;34876;51.464;-0.150;2023-05-10T04:16:10;2;2;
49064;PMS5003;34876;51.464;-0.150;2023-05-10T04:18:39;3;3;
49064;PMS5003;34876;51.464;-0.150;2023-05-10T04:21:11;2;2;
49064;PMS5003;34876;51.464;-0.150;2023-05-10T04:23:40;2;2;
49064;PMS5003;34876;51.464;-0.150;2023-05-10T04:26:09;5;4;
49064;PMS5003;34876;51.464;-0.150;2023-05-10T04:28:38;4;3;
49064;PMS5003;34876;51.464;-0.150;2023-05-10T04:31:07;4;4;
49064;PMS5003;34876;51.464;-0.150;2023-05-10T04:33:37;4;4;
49064;PMS5003;34876;51.464;-0.150;2023-05-10T04:36:08;3;3;
49064;PMS5003;34876;51.464;-0.150;2023-05-10T04:38:37;4;4;
49064;PMS5003;34876;51.464;-0.150;2023-05-10T04:41:06;5;4;
49064;PMS5003;34876;51.464;-0.150;2023-05-10T04:43:36;2;2;
49064;PMS5003;34876;51.464;-0.150;2023-05-10T04:46:06;3;3;
49064;PMS5003;34876;51.464;-0.150;2023-05-10T04:48:35;2;2;
49064;PMS5003;34876;51.464;-0.150;2023-05-10T04:51:04;3;3;
49064;PMS5003;34876;51.464;-0.150;2023-05-10T04:53:33;4;4;
49064;PMS5003;34876;51.464;-0.150;2023-05-10T04:56:02;4;4;
49064;PMS5003;34876;51.464;-0.150;2023-05-10T04:58:31;3;3;
49064;PMS5003;34876;51.464;-0.150;2023-05-10T05:01:04;3;2;
49064;PMS5003;34876;51.464;-0.150;2023-05-10T05:03:33;3;3;
49064;PMS5003;34876;51.464;-0.150;2023-05-10T05:06:04;3;3;
49064;PMS5003;34876;51.464;-0.150;2023-05-10T05:08:33;2;2;
49064;PMS5003;34876;51.464;-0.150;2023-05-10T05:11:02;3;1;
49064;PMS5003;34876;51.464;-0.150;2023-05-10T05:13:31;3;3;
49064;PMS5003;34876;51.464;-0.150;2023-05-10T05:16:00;3;3;
49064;PMS5003;34876;51.464;-0.150;2023-05-10T05:18:30;2;2;
49064;PMS5003;34876;51.464;-0.150;2023-05-10T05:21:00;3;3;
49064;PMS5003;34876;51.464;-0.150;2023-05-10T05:23:29;2;2;
49064;PMS5003;34876;51.464;-0.150;2023-05-10T05:25:58;2;2;
49064;PMS5003;34876;51.464;-0.150;2023-05-10T05:28:27;3;1;
49064;PMS5003;34876;51.464;-0.150;2023-05-10T05:30:56;1;1;
49064;PMS5003;34876;51.464;-0.150;2023-05-10T05:33:24;3;3;
49064;PMS5003;34876;51.464;-0.150;2023-05-10T05:35:53;4;4;
49064;PMS5003;34876;51.464;-0.150;2023-05-10T05:38:22;6;6;
49064;PMS5003;34876;51.464;-0.150;2023-05-10T05:40:51;2;2;
49064;PMS5003;34876;51.464;-0.150;2023-05-10T05:43:21;4;3;
49064;PMS5003;34876;51.464;-0.150;2023-05-10T05:45:49;4;4;
49064;PMS5003;34876;51.464;-0.150;2023-05-10T05:48:20;2;2;
49064;PMS5003;34876;51.464;-0.150;2023-05-10T05:50:49;4;4;
49064;PMS5003;34876;51.464;-0.150;2023-05-10T05:53:22;3;3;
49064;PMS5003;34876;51.464;-0.150;2023-05-10T05:55:52;4;4;
49064;PMS5003;34876;51.464;-0.150;2023-05-10T05:58:22;3;3;
49064;PMS5003;34876;51.464;-0.150;2023-05-10T06:00:52;2;2;
49064;PMS5003;34876;51.464;-0.150;2023-05-10T06:03:21;4;4;
49064;PMS5003;34876;51.464;-0.150;2023-05-10T06:05:50;3;3;
49064;PMS5003;34876;51.464;-0.150;2023-05-10T06:08:19;3;3;
49064;PMS5003;34876;51.464;-0.150;2023-05-10T06:10:48;4;3;
49064;PMS5003;34876;51.464;-0.150;2023-05-10T06:13:17;2;2;
49064;PMS5003;34876;51.464;-0.150;2023-05-10T06:15:45;3;3;
49064;PMS5003;34876;51.464;-0.150;2023-05-10T06:18:14;2;2;
49064;PMS5003;34876;51.464;-0.150;2023-05-10T06:20:43;1;1;
49064;PMS5003;34876;51.464;-0.150;2023-05-10T06:23:12;3;3;
49064;PMS5003;34876;51.464;-0.150;2023-05-10T06:25:42;3;3;
49064;PMS5003;34876;51.464;-0.150;2023-05-10T06:28:12;4;4;
49064;PMS5003;34876;51.464;-0.150;2023-05-10T06:30:41;4;3;
49064;PMS5003;34876;51.464;-0.150;2023-05-10T06:33:10;3;3;
49064;PMS5003;34876;51.464;-0.150;2023-05-10T06:35:39;3;3;
49064;PMS5003;34876;51.464;-0.150;2023-05-10T06:38:09;2;2;
49064;PMS5003;34876;51.464;-0.150;2023-05-10T06:40:40;4;4;
49064;PMS5003;34876;51.464;-0.150;2023-05-10T06:43:10;3;3;
49064;PMS5003;34876;51.464;-0.150;2023-05-10T06:45:39;3;3;
49064;PMS5003;34876;51.464;-0.150;2023-05-10T06:48:07;4;4;
49064;PMS5003;34876;51.464;-0.150;2023-05-10T06:50:36;4;4;
49064;PMS5003;34876;51.464;-0.150;2023-05-10T06:53:05;3;3;
49064;PMS5003;34876;51.464;-0.150;2023-05-10T06:55:34;2;2;
49064;PMS5003;34876;51.464;-0.150;2023-05-10T06:58:04;3;3;
49064;PMS5003;34876;51.464;-0.150;2023-05-10T07:00:34;4;4;
49064;PMS5003;34876;51.464;-0.150;2023-05-10T07:03:03;3;3;
49064;PMS5003;34876;51.464;-0.150;2023-05-10T07:05:32;3;2;
49064;PMS5003;34876;51.464;-0.150;2023-05-10T07:08:01;5;5;
49064;PMS5003;34876;51.464;-0.150;2023-05-10T07:10:30;4;4;
49064;PMS5003;34876;51.464;-0.150;2023-05-10T07:12:59;3;3;
49064;PMS5003;34876;51.464;-0.150;2023-05-10T07:15:28;3;3;
49064;PMS5003;34876;51.464;-0.150;2023-05-10T07:17:57;2;2;
49064;PMS5003;34876;51.464;-0.150;2023-05-10T07:20:26;3;3;
49064;PMS5003;34876;51.464;-0.150;2023-05-10T07:22:55;3;3;
49064;PMS5003;34876;51.464;-0.150;2023-05-10T07:25:24;3;3;
49064;PMS5003;34876;51.464;-0.150;2023-05-10T07:27:52;3;3;
49064;PMS5003;34876;51.464;-0.150;2023-05-10T07:30:22;3;3;
49064;PMS5003;34876;51.464;-0.150;2023-05-10T07:32:52;4;4;
49064;PMS5003;34876;51.464;-0.150;2023-05-10T07:35:21;4;4;
49064;PMS5003;34876;51.464;-0.150;2023-05-10T07:37:50;1;1;
49064;PMS5003;34876;51.464;-0.150;2023-05-10T07:40:19;3;3;
49064;PMS5003;34876;51.464;-0.150;2023-05-10T07:42:48;6;6;
49064;PMS5003;34876;51.464;-0.150;2023-05-10T07:45:17;4;4;
49064;PMS5003;34876;51.464;-0.150;2023-05-10T07:47:47;2;2;
49064;PMS5003;34876;51.464;-0.150;2023-05-10T07:50:15;2;2;
49064;PMS5003;34876;51.464;-0.150;2023-05-10T07:52:44;3;3;
49064;PMS5003;34876;51.464;-0.150;2023-05-10T07:55:13;2;2;
49064;PMS5003;34876;51.464;-0.150;2023-05-10T07:57:42;3;3;
49064;PMS5003;34876;51.464;-0.150;2023-05-10T08:00:12;3;3;
49064;PMS5003;34876;51.464;-0.150;2023-05-10T08:02:44;2;2;
49064;PMS5003;34876;51.464;-0.150;2023-05-10T08:05:14;6;4;
49064;PMS5003;34876;51.464;-0.150;2023-05-10T08:07:43;6;6;
49064;PMS5003;34876;51.464;-0.150;2023-05-10T08:10:12;1;1;
49064;PMS5003;34876;51.464;-0.150;2023-05-10T08:12:41;4;4;
49064;PMS5003;34876;51.464;-0.150;2023-05-10T08:15:10;3;3;
49064;PMS5003;34876;51.464;-0.150;2023-05-10T08:17:39;4;2;
49064;PMS5003;34876;51.464;-0.150;2023-05-10T08:20:10;4;3;
49064;PMS5003;34876;51.464;-0.150;2023-05-10T08:22:39;3;3;
49064;PMS5003;34876;51.464;-0.150;2023-05-10T08:25:07;5;4;
49064;PMS5003;34876;51.464;-0.150;2023-05-10T08:27:37;3;3;
49064;PMS5003;34876;51.464;-0.150;2023-05-10T08:30:07;3;3;
49064;PMS5003;34876;51.464;-0.150;2023-05-10T08:32:37;3;3;
49064;PMS5003;34876;51.464;-0.150;2023-05-10T08:35:06;2;2;
49064;PMS5003;34876;51.464;-0.150;2023-05-10T08:37:35;4;4;
49064;PMS5003;34876;51.464;-0.150;2023-05-10T08:40:04;3;3;
49064;PMS5003;34876;51.464;-0.150;2023-05-10T08:42:35;3;3;
49064;PMS5003;34876;51.464;-0.150;2023-05-10T08:45:08;5;5;
49064;PMS5003;34876;51.464;-0.150;2023-05-10T08:47:39;4;4;
49064;PMS5003;34876;51.464;-0.150;2023-05-10T08:50:08;5;5;
49064;PMS5003;34876;51.464;-0.150;2023-05-10T08:52:38;4;4;
49064;PMS5003;34876;51.464;-0.150;2023-05-10T08:55:09;3;3;
49064;PMS5003;34876;51.464;-0.150;2023-05-10T08:57:39;3;3;
49064;PMS5003;34876;51.464;-0.150;2023-05-10T09:00:10;4;4;
49064;PMS5003;34876;51.464;-0.150;2023-05-10T09:02:41;3;3;
49064;PMS5003;34876;51.464;-0.150;2023-05-10T09:05:11;3;3;
49064;PMS5003;34876;51.464;-0.150;2023-05-10T09:07:42;4;3;
49064;PMS5003;34876;51.464;-0.150;2023-05-10T09:10:11;5;5;
49064;PMS5003;34876;51.464;-0.150;2023-05-10T09:12:42;5;5;
49064;PMS5003;34876;51.464;-0.150;2023-05-10T09:15:13;4;4;
49064;PMS5003;34876;51.464;-0.150;2023-05-10T09:17:44;3;2;
49064;PMS5003;34876;51.464;-0.150;2023-05-10T09:20:16;4;3;
49064;PMS5003;34876;51.464;-0.150;2023-05-10T09:22:45;5;4;
49064;PMS5003;34876;51.464;-0.150;2023-05-10T09:25:16;4;4;
49064;PMS5003;34876;51.464;-0.150;2023-05-10T09:27:45;2;2;
49064;PMS5003;34876;51.464;-0.150;2023-05-10T09:30:16;4;4;
49064;PMS5003;34876;51.464;-0.150;2023-05-10T09:32:51;5;5;
49064;PMS5003;34876;51.464;-0.150;2023-05-10T09:35:22;3;3;
49064;PMS5003;34876;51.464;-0.150;2023-05-10T09:37:55;4;4;
49064;PMS5003;34876;51.464;-0.150;2023-05-10T09:40:26;5;4;
49064;PMS5003;34876;51.464;-0.150;2023-05-10T09:42:57;3;3;
49064;PMS5003;34876;51.464;-0.150;2023-05-10T09:45:27;3;3;
49064;PMS5003;34876;51.464;-0.150;2023-05-10T09:47:58;4;4;
49064;PMS5003;34876;51.464;-0.150;2023-05-10T09:50:29;4;4;
49064;PMS5003;34876;51.464;-0.150;2023-05-10T09:52:59;5;5;
49064;PMS5003;34876;51.464;-0.150;2023-05-10T09:55:38;6;4;
49064;PMS5003;34876;51.464;-0.150;2023-05-10T09:58:09;5;5;
49064;PMS5003;34876;51.464;-0.150;2023-05-10T10:00:38;4;4;
49064;PMS5003;34876;51.464;-0.150;2023-05-10T10:03:12;3;3;
49064;PMS5003;34876;51.464;-0.150;2023-05-10T10:05:42;6;4;
49064;PMS5003;34876;51.464;-0.150;2023-05-10T10:08:12;4;4;
49064;PMS5003;34876;51.464;-0.150;2023-05-10T10:10:42;3;3;
49064;PMS5003;34876;51.464;-0.150;2023-05-10T10:13:12;4;4;
49064;PMS5003;34876;51.464;-0.150;2023-05-10T10:15:42;5;5;
49064;PMS5003;34876;51.464;-0.150;2023-05-10T10:18:12;4;4;
49064;PMS5003;34876;51.464;-0.150;2023-05-10T10:20:42;4;4;
49064;PMS5003;34876;51.464;-0.150;2023-05-10T10:23:12;4;4;
49064;PMS5003;34876;51.464;-0.150;2023-05-10T10:25:41;5;5;
49064;PMS5003;34876;51.464;-0.150;2023-05-10T10:28:16;3;3;
49064;PMS5003;34876;51.464;-0.150;2023-05-10T10:30:52;2;2;
49064;PMS5003;34876;51.464;-0.150;2023-05-10T10:33:29;2;2;
49064;PMS5003;34876;51.464;-0.150;2023-05-10T10:36:07;3;3;
49064;PMS5003;34876;51.464;-0.150;2023-05-10T10:38:36;4;4;
49064;PMS5003;34876;51.464;-0.150;2023-05-10T10:41:27;5;4;
49064;PMS5003;34876;51.464;-0.150;2023-05-10T10:45:11;4;4;
49064;PMS5003;34876;51.464;-0.150;2023-05-10T10:47:40;5;5;
49064;PMS5003;34876;51.464;-0.150;2023-05-10T10:50:09;4;4;
49064;PMS5003;34876;51.464;-0.150;2023-05-10T10:52:38;4;4;
49064;PMS5003;34876;51.464;-0.150;2023-05-10T10:55:08;4;4;
49064;PMS5003;34876;51.464;-0.150;2023-05-10T10:57:43;3;3;
49064;PMS5003;34876;51.464;-0.150;2023-05-10T11:00:18;5;4;
49064;PMS5003;34876;51.464;-0.150;2023-05-10T11:02:49;6;4;
49064;PMS5003;34876;51.464;-0.150;2023-05-10T11:05:36;4;4;
49064;PMS5003;34876;51.464;-0.150;2023-05-10T11:08:09;6;6;
49064;PMS5003;34876;51.464;-0.150;2023-05-10T11:10:49;4;4;
49064;PMS5003;34876;51.464;-0.150;2023-05-10T11:13:28;3;3;
49064;PMS5003;34876;51.464;-0.150;2023-05-10T11:15:58;2;2;
49064;PMS5003;34876;51.464;-0.150;2023-05-10T11:18:38;5;3;
49064;PMS5003;34876;51.464;-0.150;2023-05-10T11:21:08;5;4;
49064;PMS5003;34876;51.464;-0.150;2023-05-10T11:23:54;5;5;
49064;PMS5003;34876;51.464;-0.150;2023-05-10T11:26:24;2;2;
49064;PMS5003;34876;51.464;-0.150;2023-05-10T11:28:58;4;4;
49064;PMS5003;34876;51.464;-0.150;2023-05-10T11:31:28;5;4;
49064;PMS5003;34876;51.464;-0.150;2023-05-10T11:33:58;5;5;
49064;PMS5003;34876;51.464;-0.150;2023-05-10T11:36:34;4;4;
49064;PMS5003;34876;51.464;-0.150;2023-05-10T11:39:04;4;4;
49064;PMS5003;34876;51.464;-0.150;2023-05-10T11:41:34;6;4;
49064;PMS5003;34876;51.464;-0.150;2023-05-10T11:44:03;6;6;
49064;PMS5003;34876;51.464;-0.150;2023-05-10T11:46:32;4;4;
49064;PMS5003;34876;51.464;-0.150;2023-05-10T11:49:01;4;4;
49064;PMS5003;34876;51.464;-0.150;2023-05-10T11:51:32;3;3;
49064;PMS5003;34876;51.464;-0.150;2023-05-10T11:54:05;4;4;
49064;PMS5003;34876;51.464;-0.150;2023-05-10T11:56:36;4;4;
49064;PMS5003;34876;51.464;-0.150;2023-05-10T11:59:05;4;4;
49064;PMS5003;34876;51.464;-0.150;2023-05-10T12:01:35;5;5;
49064;PMS5003;34876;51.464;-0.150;2023-05-10T12:04:04;5;5;
49064;PMS5003;34876;51.464;-0.150;2023-05-10T12:06:37;5;4;
49064;PMS5003;34876;51.464;-0.150;2023-05-10T12:09:08;5;5;
49064;PMS5003;34876;51.464;-0.150;2023-05-10T12:11:39;4;4;
49064;PMS5003;34876;51.464;-0.150;2023-05-10T12:14:08;5;4;
49064;PMS5003;34876;51.464;-0.150;2023-05-10T12:16:37;3;3;
49064;PMS5003;34876;51.464;-0.150;2023-05-10T12:19:06;5;3;
49064;PMS5003;34876;51.464;-0.150;2023-05-10T12:21:35;5;4;
49064;PMS5003;34876;51.464;-0.150;2023-05-10T12:24:04;7;7;
49064;PMS5003;34876;51.464;-0.150;2023-05-10T12:26:33;5;4;
49064;PMS5003;34876;51.464;-0.150;2023-05-10T12:29:18;4;3;
49064;PMS5003;34876;51.464;-0.150;2023-05-10T12:31:49;5;5;
49064;PMS5003;34876;51.464;-0.150;2023-05-10T12:34:24;4;4;
49064;PMS5003;34876;51.464;-0.150;2023-05-10T12:36:54;5;5;
49064;PMS5003;34876;51.464;-0.150;2023-05-10T12:39:23;3;3;
49064;PMS5003;34876;51.464;-0.150;2023-05-10T12:41:52;4;3;
49064;PMS5003;34876;51.464;-0.150;2023-05-10T12:44:21;3;3;
49064;PMS5003;34876;51.464;-0.150;2023-05-10T12:46:50;4;4;
49064;PMS5003;34876;51.464;-0.150;2023-05-10T12:49:19;3;3;
49064;PMS5003;34876;51.464;-0.150;2023-05-10T12:51:48;5;4;
49064;PMS5003;34876;51.464;-0.150;2023-05-10T12:54:17;4;4;
49064;PMS5003;34876;51.464;-0.150;2023-05-10T12:56:47;4;4;
49064;PMS5003;34876;51.464;-0.150;2023-05-10T12:59:16;4;4;
49064;PMS5003;34876;51.464;-0.150;2023-05-10T13:01:45;4;4;
49064;PMS5003;34876;51.464;-0.150;2023-05-10T13:04:14;5;4;
49064;PMS5003;34876;51.464;-0.150;2023-05-10T13:06:43;5;5;
49064;PMS5003;34876;51.464;-0.150;2023-05-10T13:09:12;3;3;
49064;PMS5003;34876;51.464;-0.150;2023-05-10T13:11:41;4;3;
49064;PMS5003;34876;51.464;-0.150;2023-05-10T13:14:10;6;5;
49064;PMS5003;34876;51.464;-0.150;2023-05-10T13:16:39;4;4;
49064;PMS5003;34876;51.464;-0.150;2023-05-10T13:19:08;5;5;
49064;PMS5003;34876;51.464;-0.150;2023-05-10T13:21:37;8;6;
49064;PMS5003;34876;51.464;-0.150;2023-05-10T13:24:06;5;5;
49064;PMS5003;34876;51.464;-0.150;2023-05-10T13:26:35;7;5;
49064;PMS5003;34876;51.464;-0.150;2023-05-10T13:29:05;4;4;
49064;PMS5003;34876;51.464;-0.150;2023-05-10T13:31:33;5;5;
49064;PMS5003;34876;51.464;-0.150;2023-05-10T13:34:03;5;5;
49064;PMS5003;34876;51.464;-0.150;2023-05-10T13:36:33;3;3;
49064;PMS5003;34876;51.464;-0.150;2023-05-10T13:39:02;4;3;
49064;PMS5003;34876;51.464;-0.150;2023-05-10T13:41:32;6;6;
49064;PMS5003;34876;51.464;-0.150;2023-05-10T13:44:04;5;5;
49064;PMS5003;34876;51.464;-0.150;2023-05-10T13:46:33;7;4;
49064;PMS5003;34876;51.464;-0.150;2023-05-10T13:49:02;6;5;
49064;PMS5003;34876;51.464;-0.150;2023-05-10T13:51:31;4;4;
49064;PMS5003;34876;51.464;-0.150;2023-05-10T13:54:01;5;5;
49064;PMS5003;34876;51.464;-0.150;2023-05-10T13:56:30;4;4;
49064;PMS5003;34876;51.464;-0.150;2023-05-10T13:58:59;5;5;
49064;PMS5003;34876;51.464;-0.150;2023-05-10T14:01:28;5;3;
49064;PMS5003;34876;51.464;-0.150;2023-05-10T14:03:58;8;7;
49064;PMS5003;34876;51.464;-0.150;2023-05-10T14:06:26;4;4;
49064;PMS5003;34876;51.464;-0.150;2023-05-10T14:08:55;6;6;
49064;PMS5003;34876;51.464;-0.150;2023-05-10T14:11:24;6;6;
49064;PMS5003;34876;51.464;-0.150;2023-05-10T14:13:53;8;6;
49064;PMS5003;34876;51.464;-0.150;2023-05-10T14:16:22;7;6;
49064;PMS5003;34876;51.464;-0.150;2023-05-10T14:18:51;3;3;
49064;PMS5003;34876;51.464;-0.150;2023-05-10T14:21:20;6;6;
49064;PMS5003;34876;51.464;-0.150;2023-05-10T14:23:49;7;5;
49064;PMS5003;34876;51.464;-0.150;2023-05-10T14:26:18;7;7;
49064;PMS5003;34876;51.464;-0.150;2023-05-10T14:28:47;7;7;
49064;PMS5003;34876;51.464;-0.150;2023-05-10T14:31:16;6;5;
49064;PMS5003;34876;51.464;-0.150;2023-05-10T14:33:45;6;5;
49064;PMS5003;34876;51.464;-0.150;2023-05-10T14:36:14;4;4;
49064;PMS5003;34876;51.464;-0.150;2023-05-10T14:38:45;7;6;
49064;PMS5003;34876;51.464;-0.150;2023-05-10T14:41:14;8;6;
49064;PMS5003;34876;51.464;-0.150;2023-05-10T14:43:44;6;6;
49064;PMS5003;34876;51.464;-0.150;2023-05-10T14:46:12;7;7;
49064;PMS5003;34876;51.464;-0.150;2023-05-10T14:48:41;8;6;
49064;PMS5003;34876;51.464;-0.150;2023-05-10T14:51:10;5;5;
49064;PMS5003;34876;51.464;-0.150;2023-05-10T14:53:39;7;7;
49064;PMS5003;34876;51.464;-0.150;2023-05-10T14:56:08;9;7;
49064;PMS5003;34876;51.464;-0.150;2023-05-10T14:58:37;9;5;
49064;PMS5003;34876;51.464;-0.150;2023-05-10T15:01:05;7;7;
49064;PMS5003;34876;51.464;-0.150;2023-05-10T15:03:34;6;6;
49064;PMS5003;34876;51.464;-0.150;2023-05-10T15:06:04;5;5;
49064;PMS5003;34876;51.464;-0.150;2023-05-10T15:08:33;6;5;
49064;PMS5003;34876;51.464;-0.150;2023-05-10T15:11:02;6;5;
49064;PMS5003;34876;51.464;-0.150;2023-05-10T15:13:32;6;6;
49064;PMS5003;34876;51.464;-0.150;2023-05-10T15:16:01;8;7;
49064;PMS5003;34876;51.464;-0.150;2023-05-10T15:18:30;7;5;
49064;PMS5003;34876;51.464;-0.150;2023-05-10T15:20:59;7;7;
49064;PMS5003;34876;51.464;-0.150;2023-05-10T15:23:27;5;5;
49064;PMS5003;34876;51.464;-0.150;2023-05-10T15:25:56;7;7;
49064;PMS5003;34876;51.464;-0.150;2023-05-10T15:28:26;7;7;
49064;PMS5003;34876;51.464;-0.150;2023-05-10T15:30:54;8;7;
49064;PMS5003;34876;51.464;-0.150;2023-05-10T15:33:24;7;7;
49064;PMS5003;34876;51.464;-0.150;2023-05-10T15:35:53;6;6;
49064;PMS5003;34876;51.464;-0.150;2023-05-10T15:38:21;6;6;
49064;PMS5003;34876;51.464;-0.150;2023-05-10T15:40:50;6;6;
49064;PMS5003;34876;51.464;-0.150;2023-05-10T15:43:23;7;6;
49064;PMS5003;34876;51.464;-0.150;2023-05-10T15:45:52;7;6;
49064;PMS5003;34876;51.464;-0.150;2023-05-10T15:48:21;6;6;
49064;PMS5003;34876;51.464;-0.150;2023-05-10T15:50:50;7;6;
49064;PMS5003;34876;51.464;-0.150;2023-05-10T15:53:19;7;7;
49064;PMS5003;34876;51.464;-0.150;2023-05-10T15:55:49;6;6;
49064;PMS5003;34876;51.464;-0.150;2023-05-10T15:58:18;7;6;
49064;PMS5003;34876;51.464;-0.150;2023-05-10T16:00:48;6;6;
49064;PMS5003;34876;51.464;-0.150;2023-05-10T16:03:18;6;5;
49064;PMS5003;34876;51.464;-0.150;2023-05-10T16:05:47;6;6;
49064;PMS5003;34876;51.464;-0.150;2023-05-10T16:08:15;6;6;
49064;PMS5003;34876;51.464;-0.150;2023-05-10T16:10:44;6;6;
49064;PMS5003;34876;51.464;-0.150;2023-05-10T16:13:13;6;6;
49064;PMS5003;34876;51.464;-0.150;2023-05-10T16:15:42;5;5;
49064;PMS5003;34876;51.464;-0.150;2023-05-10T16:18:11;7;7;
49064;PMS5003;34876;51.464;-0.150;2023-05-10T16:20:40;6;6;
49064;PMS5003;34876;51.464;-0.150;2023-05-10T16:23:10;6;6;
49064;PMS5003;34876;51.464;-0.150;2023-05-10T16:25:40;6;6;
49064;PMS5003;34876;51.464;-0.150;2023-05-10T16:28:09;9;7;
49064;PMS5003;34876;51.464;-0.150;2023-05-10T16:30:38;9;6;
49064;PMS5003;34876;51.464;-0.150;2023-05-10T16:33:07;7;7;
49064;PMS5003;34876;51.464;-0.150;2023-05-10T16:35:40;8;6;
49064;PMS5003;34876;51.464;-0.150;2023-05-10T16:38:09;7;5;
49064;PMS5003;34876;51.464;-0.150;2023-05-10T16:40:38;6;5;
49064;PMS5003;34876;51.464;-0.150;2023-05-10T16:43:07;7;7;
49064;PMS5003;34876;51.464;-0.150;2023-05-10T16:45:35;6;6;
49064;PMS5003;34876;51.464;-0.150;2023-05-10T16:48:04;8;7;
49064;PMS5003;34876;51.464;-0.150;2023-05-10T16:50:35;5;5;
49064;PMS5003;34876;51.464;-0.150;2023-05-10T16:53:04;6;6;
49064;PMS5003;34876;51.464;-0.150;2023-05-10T16:55:35;8;7;
49064;PMS5003;34876;51.464;-0.150;2023-05-10T16:58:05;4;4;